CDT,Max TemperatureF,Mean TemperatureF,Min TemperatureF,Max Dew PointF,MeanDew PointF,Min DewpointF,Max Humidity, Mean Humidity, Min Humidity, Max Sea Level PressureIn, Mean Sea Level PressureIn, Min Sea Level PressureIn, Max VisibilityMiles, Mean VisibilityMiles, Min VisibilityMiles, Max Wind SpeedMPH, Mean Wind SpeedMPH, Max Gust SpeedMPH,PrecipitationIn, CloudCover, Events, WindDirDegrees
2012-10-1,68,52,36,47,42,35,97,66,39,29.94,29.88,29.84,10,10,10,7,1,,0.00,0,,190
2012-10-2,68,56,45,49,47,42,96,73,49,29.96,29.92,29.86,10,10,8,9,2,,0.00,0,,54
2012-10-3,70,54,38,57,44,39,100,89,38,30.01,29.97,29.93,10,5,0,5,0,,0.00,5,Fog,90
2012-10-4,65,52,39,50,39,31,100,72,34,30.08,29.96,29.91,10,9,2,17,4,26,0.00,2,,261
2012-10-5,50,42,34,31,27,22,76,53,37,30.10,30.05,29.99,10,10,10,22,11,29,0.00,3,,268
2012-10-6,43,40,37,28,25,23,65,55,46,30.20,30.13,30.03,10,10,10,17,11,24,0.00,7,,317
2012-10-7,50,39,27,26,20,15,78,50,24,30.19,30.13,30.06,10,10,10,14,3,17,0.00,3,,264
2012-10-8,59,40,21,32,26,18,89,57,34,30.06,29.93,29.79,10,10,10,21,5,32,0.00,2,,195
2012-10-9,54,46,37,47,42,32,100,87,42,29.87,29.80,29.75,10,6,2,18,7,29,0.39,6,Rain,244
2012-10-10,47,39,31,34,28,24,92,71,39,30.11,30.03,29.88,10,10,9,21,7,26,0.00,2,,280
2012-10-11,54,46,31,34,29,20,69,52,36,30.35,30.06,29.92,10,10,10,15,10,24,0.00,3,Rain,270
2012-10-12,50,36,22,33,23,18,96,68,28,30.49,30.40,30.24,10,10,5,8,1,,0.00,0,,150
2012-10-13,59,48,38,59,47,33,100,99,73,30.20,29.89,29.72,10,2,0,10,3,,1.28,8,Fog-Rain,132
2012-10-14,59,52,43,57,47,40,100,98,86,29.77,29.62,29.53,10,3,0,15,8,24,2.18,8,Fog-Rain-Thunderstorm,14
2012-10-15,56,45,34,42,38,35,100,83,49,29.94,29.88,29.78,10,10,8,10,7,17,0.00,2,,307
2012-10-16,66,51,36,47,43,36,100,76,43,29.91,29.66,29.45,10,10,7,14,3,21,0.00,2,,137
2012-10-17,65,52,38,57,48,39,100,96,57,29.44,29.36,29.23,10,4,0,16,2,21,0.43,5,Fog-Rain,209
2012-10-18,50,46,41,51,44,41,100,93,86,29.42,29.31,29.21,10,9,2,13,6,17,0.13,8,Rain,195
2012-10-19,46,44,41,45,42,39,100,95,73,29.66,29.51,29.42,10,7,1,9,1,,0.07,8,Rain,19
2012-10-20,54,44,32,43,39,33,100,88,59,29.91,29.79,29.67,10,10,7,7,2,,0.00,4,,300
2012-10-21,63,46,29,47,39,29,100,81,53,30.01,29.96,29.93,10,9,5,10,2,,0.00,0,,138
2012-10-22,61,52,43,54,51,44,100,89,72,29.98,29.95,29.91,10,7,2,10,3,,0.00,6,,58
2012-10-23,61,56,50,61,57,48,100,99,88,29.94,29.89,29.83,10,3,0,10,3,,0.00,8,Fog-Rain-Thunderstorm,93
2012-10-24,73,64,55,66,62,55,100,91,76,29.89,29.83,29.69,10,4,0,10,2,,0.00,7,Fog,156
2012-10-25,68,52,36,65,53,30,100,93,75,30.07,29.64,29.52,10,5,1,26,14,31,0.32,7,Rain-Thunderstorm,253
2012-10-26,43,37,31,31,27,23,82,67,51,30.36,30.28,30.09,10,10,10,16,8,24,0.00,3,,292
2012-10-27,41,32,23,27,21,14,96,68,32,30.39,30.35,30.32,10,10,10,12,2,20,0.00,0,,344
2012-10-28,45,34,22,26,21,18,92,68,34,30.41,30.37,30.34,10,10,9,7,0,,0.00,0,,40
2012-10-29,48,34,20,26,21,18,92,62,30,30.41,30.32,30.20,10,10,10,10,1,,0.00,0,,4
2012-10-30,45,38,32,27,22,17,76,55,33,30.19,30.01,29.92,10,10,10,20,11,29,0.00,0,,350
2012-10-31,45,36,28,27,21,13,81,58,34,29.91,29.89,29.85,10,10,10,17,8,23,0.00,0,,319